Time;durP1;ratioP1;P1;durP2;ratioP2;P2;SDS_P1;SDS_P2;PMS_P1;PMS_P2;Temp;Humidity;BMP_temperature;BMP_pressure;BME280_temperature;BME280_humidity;BME280_pressure;Samples;Min_cycle;Max_cycle;Signal;HPM_P1;HPM_P2
2021/06/02 00:00:27;;;;;;;17.88;9.18;;;8.90;94.10;;;;;;5022445;28;20033;-85
2021/06/02 00:02:54;;;;;;;15.70;9.55;;;8.80;94.40;;;;;;5026875;28;20037;-86
2021/06/02 00:05:21;;;;;;;16.70;10.27;;;8.80;94.40;;;;;;5026811;28;20024;-85
2021/06/02 00:07:48;;;;;;;14.98;9.18;;;8.70;94.60;;;;;;5029837;28;20038;-85
2021/06/02 00:10:17;;;;;;;14.52;8.32;;;8.80;94.40;;;;;;5027287;28;20017;-85
2021/06/02 00:12:42;;;;;;;14.60;9.30;;;8.70;94.20;;;;;;5027116;28;20459;-86
2021/06/02 00:15:10;;;;;;;14.70;9.45;;;8.70;94.40;;;;;;5008752;28;20032;-84
2021/06/02 00:17:36;;;;;;;13.75;8.98;;;8.70;94.70;;;;;;5028789;28;20112;-85
2021/06/02 00:20:05;;;;;;;13.73;9.07;;;8.60;94.40;;;;;;5010309;28;20463;-86
2021/06/02 00:22:31;;;;;;;14.55;9.05;;;8.60;94.50;;;;;;5028532;28;20033;-85
2021/06/02 00:24:56;;;;;;;13.38;9.75;;;8.60;94.50;;;;;;5030044;28;20025;-86
2021/06/02 00:27:23;;;;;;;17.70;9.57;;;8.60;94.60;;;;;;5027101;28;20049;-85
2021/06/02 00:29:50;;;;;;;14.40;9.70;;;8.50;94.50;;;;;;5028161;28;20028;-83
2021/06/02 00:32:19;;;;;;;17.40;9.57;;;8.50;94.60;;;;;;5023505;28;20028;-84
2021/06/02 00:34:47;;;;;;;13.80;8.93;;;8.50;94.70;;;;;;5027693;28;20022;-85
2021/06/02 00:37:13;;;;;;;17.70;10.43;;;8.50;95.00;;;;;;5012923;28;20513;-86
2021/06/02 00:39:41;;;;;;;16.83;8.75;;;8.50;94.40;;;;;;5025092;28;20472;-85
2021/06/02 00:42:06;;;;;;;12.95;9.15;;;8.60;94.20;;;;;;5008495;28;20068;-85
2021/06/02 00:44:33;;;;;;;20.85;9.98;;;8.50;94.10;;;;;;5017086;28;20061;-85
2021/06/02 00:47:00;;;;;;;13.30;9.80;;;8.50;94.20;;;;;;5017104;28;20046;-84
2021/06/02 00:49:26;;;;;;;12.77;8.55;;;8.50;94.50;;;;;;5029401;28;20021;-85
2021/06/02 00:52:00;;;;;;;19.08;9.80;;;8.50;94.50;;;;;;5028732;28;20083;-85
2021/06/02 00:54:30;;;;;;;14.40;9.23;;;8.60;94.50;;;;;;5026083;28;20552;-85
2021/06/02 00:57:11;;;;;;;16.23;9.27;;;8.60;94.40;;;;;;5025930;28;20025;-85
2021/06/02 00:59:49;;;;;;;16.67;10.07;;;8.60;94.30;;;;;;5025329;28;20025;-86
2021/06/02 01:02:17;;;;;;;16.02;9.70;;;8.50;94.50;;;;;;5027887;28;20022;-85
2021/06/02 01:04:44;;;;;;;15.45;9.05;;;8.60;94.50;;;;;;5021091;28;20029;-82
2021/06/02 01:07:12;;;;;;;14.18;9.45;;;8.70;94.20;;;;;;5020361;28;20038;-86
2021/06/02 01:09:46;;;;;;;15.52;9.68;;;8.70;94.10;;;;;;5026481;28;20030;-85
2021/06/02 01:12:17;;;;;;;13.45;9.05;;;8.70;94.40;;;;;;5009556;28;20033;-84
2021/06/02 01:14:45;;;;;;;15.75;9.10;;;8.70;94.30;;;;;;5009649;28;20029;-84
2021/06/02 01:17:15;;;;;;;13.57;8.50;;;8.70;94.40;;;;;;5029171;28;20022;-85
2021/06/02 01:19:42;;;;;;;19.05;9.45;;;8.70;94.50;;;;;;5031286;28;20084;-86
2021/06/02 01:22:09;;;;;;;15.80;10.15;;;8.80;94.30;;;;;;5034890;28;20073;-85
2021/06/02 01:24:34;;;;;;;14.77;9.80;;;8.80;94.10;;;;;;5030262;28;20061;-86
2021/06/02 01:27:05;;;;;;;15.52;9.48;;;8.70;94.40;;;;;;5030384;28;20120;-85
2021/06/02 01:29:32;;;;;;;;;;;8.70;94.40;;;;;;5030277;28;20076;-86
2021/06/02 01:32:10;;;;;;;14.57;9.40;;;8.70;94.60;;;;;;5032944;28;19944;-86
2021/06/02 01:35:00;;;;;;;11.55;8.80;;;8.70;94.50;;;;;;5012960;28;20486;-85
2021/06/02 01:37:56;;;;;;;15.90;8.73;;;8.60;94.80;;;;;;5012822;28;20057;-86
2021/06/02 01:40:56;;;;;;;17.70;8.98;;;8.70;95.10;;;;;;5008813;28;20125;-85
2021/06/02 01:43:46;;;;;;;14.63;9.38;;;8.60;94.50;;;;;;5028783;28;20029;-84
2021/06/02 01:46:42;;;;;;;13.60;8.25;;;8.50;94.90;;;;;;5031923;28;20140;-84
2021/06/02 01:49:36;;;;;;;15.38;8.73;;;8.60;94.90;;;;;;5026952;28;20037;-86
2021/06/02 01:52:27;;;;;;;15.75;9.02;;;8.50;94.80;;;;;;5030654;28;20037;-86
2021/06/02 01:55:29;;;;;;;16.63;9.63;;;8.50;95.00;;;;;;5030766;28;20022;-84
2021/06/02 01:58:44;;;;;;;15.20;8.40;;;8.50;94.80;;;;;;5032592;28;20041;-85
2021/06/02 02:01:48;;;;;;;15.88;8.88;;;8.50;94.80;;;;;;5031258;28;20030;-86
2021/06/02 02:04:22;;;;;;;13.52;9.55;;;8.60;94.90;;;;;;5030334;28;20033;-86
2021/06/02 02:07:15;;;;;;;13.00;8.85;;;8.60;95.20;;;;;;5029269;28;20040;-85
2021/06/02 02:10:19;;;;;;;13.20;9.23;;;8.60;95.20;;;;;;5029906;28;20479;-84
2021/06/02 02:13:02;;;;;;;12.38;8.82;;;8.70;95.30;;;;;;5011645;28;20370;-86
2021/06/02 02:15:56;;;;;;;13.52;9.02;;;8.70;95.40;;;;;;5029572;28;20464;-86
2021/06/02 02:18:34;;;;;;;11.65;8.63;;;8.70;95.60;;;;;;4971513;28;20082;-85
2021/06/02 02:21:28;;;;;;;14.85;10.23;;;8.70;95.40;;;;;;4971024;28;20139;-86
2021/06/02 02:24:03;;;;;;;14.52;8.48;;;8.70;95.50;;;;;;4971601;28;20042;-86
2021/06/02 02:26:40;;;;;;;12.05;8.75;;;8.70;95.80;;;;;;4971301;28;20145;-86
2021/06/02 02:29:35;;;;;;;11.45;8.18;;;8.60;95.70;;;;;;4971044;28;20434;-85
2021/06/02 02:32:12;;;;;;;14.35;8.65;;;8.70;96.10;;;;;;4970693;28;20034;-85
2021/06/02 02:34:57;;;;;;;15.68;9.23;;;8.70;96.10;;;;;;4970536;28;20027;-85
2021/06/02 02:37:47;;;;;;;13.43;8.95;;;8.70;95.80;;;;;;4971215;28;20129;-85
2021/06/02 02:40:37;;;;;;;13.80;8.30;;;8.80;95.90;;;;;;4954297;28;20027;-84
2021/06/02 02:43:34;;;;;;;12.55;8.60;;;8.90;95.90;;;;;;4969560;28;20046;-86
2021/06/02 02:46:30;;;;;;;15.63;8.35;;;8.90;95.90;;;;;;4914323;29;20052;-85
2021/06/02 02:49:17;;;;;;;14.25;7.88;;;9.00;95.90;;;;;;4857848;29;20084;-86
2021/06/02 02:51:54;;;;;;;12.73;8.52;;;9.10;95.90;;;;;;4857645;29;20097;-86
2021/06/02 02:54:38;;;;;;;18.35;9.15;;;9.10;95.90;;;;;;4857017;29;20531;-86
2021/06/02 02:57:27;;;;;;;12.80;8.10;;;9.20;95.60;;;;;;4854547;29;20049;-85
2021/06/02 03:00:00;;;;;;;12.30;7.85;;;9.30;95.50;;;;;;4841065;29;20241;-86
2021/06/02 03:02:39;;;;;;;12.43;8.48;;;9.30;95.60;;;;;;4853103;29;20159;-85
2021/06/02 03:05:11;;;;;;;12.05;7.68;;;9.40;95.50;;;;;;4856563;29;20034;-85
2021/06/02 03:07:40;;;;;;;12.68;7.70;;;9.40;95.50;;;;;;4856384;29;20564;-85
2021/06/02 03:10:08;;;;;;;11.18;8.18;;;9.50;95.10;;;;;;4854373;29;20263;-85
2021/06/02 03:12:58;;;;;;;12.40;9.00;;;9.50;95.20;;;;;;4852589;29;20136;-86
2021/06/02 03:15:32;;;;;;;12.50;8.73;;;9.60;95.20;;;;;;4854232;29;20045;-86
2021/06/02 03:18:06;;;;;;;13.07;8.35;;;9.70;95.40;;;;;;4854748;29;20097;-86
2021/06/02 03:20:47;;;;;;;11.05;8.20;;;9.70;96.00;;;;;;4841000;29;20070;-86
2021/06/02 03:23:34;;;;;;;16.52;8.60;;;9.90;96.00;;;;;;4890510;29;20188;-85
2021/06/02 03:26:07;;;;;;;10.68;7.97;;;10.20;95.60;;;;;;4971824;28;20104;-86
2021/06/02 03:29:00;;;;;;;11.27;7.80;;;10.40;95.40;;;;;;5023091;28;20260;-85
2021/06/02 03:31:35;;;;;;;13.82;8.00;;;10.50;94.90;;;;;;5006680;28;20049;-85
2021/06/02 03:34:09;;;;;;;11.73;7.25;;;10.50;95.00;;;;;;5031209;28;20037;-85
2021/06/02 03:37:07;;;;;;;15.05;8.40;;;10.60;95.00;;;;;;5027404;28;20041;-85
2021/06/02 03:40:04;;;;;;;15.35;7.78;;;10.70;94.80;;;;;;5027227;28;20037;-85
2021/06/02 03:42:49;;;;;;;12.15;7.90;;;10.70;94.80;;;;;;5028220;28;20041;-85
2021/06/02 03:45:24;;;;;;;12.93;8.02;;;10.80;94.80;;;;;;5028667;28;20040;-84
2021/06/02 03:48:14;;;;;;;8.95;7.30;;;10.80;94.60;;;;;;5027973;28;20088;-84
2021/06/02 03:51:02;;;;;;;11.45;7.72;;;10.90;94.60;;;;;;5028627;28;20499;-85
2021/06/02 03:53:42;;;;;;;18.85;8.40;;;11.00;94.40;;;;;;5020381;28;20550;-85
2021/06/02 03:56:19;;;;;;;13.50;7.65;;;11.00;94.60;;;;;;5028282;28;20034;-84
2021/06/02 03:58:50;;;;;;;20.90;8.80;;;11.00;94.80;;;;;;5027998;28;20053;-85
2021/06/02 04:01:24;;;;;;;;;;;11.00;94.80;;;;;;5031320;28;20041;-85
2021/06/02 04:04:32;;;;;;;11.65;7.40;;;11.50;95.00;;;;;;5029417;28;19967;-85
2021/06/02 04:07:10;;;;;;;11.13;6.30;;;12.90;92.70;;;;;;4950320;29;20945;-85
2021/06/02 04:09:57;;;;;;;7.68;5.75;;;14.10;90.00;;;;;;4949515;29;20063;-86
2021/06/02 04:12:50;;;;;;;12.40;5.63;;;15.00;86.30;;;;;;4950178;29;20046;-85
2021/06/02 04:15:17;;;;;;;8.95;5.03;;;15.80;83.20;;;;;;4950309;29;20542;-85
2021/06/02 04:17:48;;;;;;;7.82;4.65;;;16.40;81.70;;;;;;4948576;29;20174;-86
2021/06/02 04:20:16;;;;;;;6.88;4.50;;;16.70;78.90;;;;;;4944161;29;20034;-86
2021/06/02 04:22:46;;;;;;;9.20;4.88;;;16.80;75.80;;;;;;4949351;29;20059;-85
2021/06/02 04:25:15;;;;;;;9.05;4.45;;;16.90;78.20;;;;;;4949881;29;20039;-86
2021/06/02 04:27:45;;;;;;;5.32;4.22;;;17.40;78.40;;;;;;4950443;29;20141;-86
2021/06/02 04:30:15;;;;;;;5.22;3.72;;;17.80;75.90;;;;;;4945549;28;20104;-85
2021/06/02 04:32:43;;;;;;;7.15;4.00;;;18.10;75.00;;;;;;4949186;28;20506;-86
2021/06/02 04:35:12;;;;;;;8.68;5.18;;;18.20;74.20;;;;;;4946659;28;20035;-85
2021/06/02 04:37:38;;;;;;;5.90;3.70;;;18.40;72.80;;;;;;4947504;28;20411;-84
2021/06/02 04:40:06;;;;;;;5.82;3.33;;;18.70;69.70;;;;;;4963073;28;20050;-85
2021/06/02 04:42:36;;;;;;;6.18;3.47;;;18.60;69.40;;;;;;5028110;28;20026;-84
2021/06/02 04:45:04;;;;;;;11.15;3.72;;;18.80;69.90;;;;;;5028196;28;20396;-85
2021/06/02 04:47:33;;;;;;;5.20;3.33;;;18.70;69.20;;;;;;5025355;28;20037;-84
2021/06/02 04:50:28;;;;;;;9.45;3.50;;;18.40;68.30;;;;;;5027172;28;20112;-84
2021/06/02 04:53:24;;;;;;;6.97;3.97;;;18.20;71.40;;;;;;5024304;28;20029;-85
2021/06/02 04:56:29;;;;;;;9.77;4.28;;;17.10;71.50;;;;;;5027114;28;20441;-84
2021/06/02 04:59:32;;;;;;;8.27;4.13;;;16.50;73.90;;;;;;5015034;28;20493;-86
2021/06/02 05:02:11;;;;;;;7.65;3.75;;;16.10;76.50;;;;;;5024465;28;20081;-84
2021/06/02 05:05:01;;;;;;;9.27;3.47;;;15.90;78.90;;;;;;5018393;28;20087;-84
2021/06/02 05:07:53;;;;;;;6.32;2.78;;;15.70;79.00;;;;;;5026195;28;20505;-85
2021/06/02 05:10:34;;;;;;;4.78;2.47;;;15.60;79.30;;;;;;5026601;28;20038;-85
2021/06/02 05:13:26;;;;;;;394.40;33.53;;;15.50;80.00;;;;;;5030219;28;20512;-86
2021/06/02 05:15:54;;;;;;;11.65;3.30;;;15.50;79.50;;;;;;5022738;28;20026;-83
2021/06/02 05:18:40;;;;;;;7.13;2.47;;;15.50;80.40;;;;;;5025972;28;20025;-86
2021/06/02 05:24:04;;;;;;;4.53;2.60;;;15.50;80.50;;;;;;5017398;28;20117;-86
2021/06/02 05:27:08;;;;;;;5.88;3.78;;;15.50;78.60;;;;;;5014180;28;20040;-86
2021/06/02 05:29:43;;;;;;;7.57;2.72;;;15.60;79.20;;;;;;5013955;28;20049;-86
2021/06/02 05:33:02;;;;;;;4.25;3.05;;;15.70;79.30;;;;;;4997399;28;20030;-85
2021/06/02 05:36:05;;;;;;;33.22;5.07;;;15.80;80.10;;;;;;5017518;28;20049;-85
2021/06/02 05:38:42;;;;;;;7.25;2.50;;;15.90;79.10;;;;;;5006280;28;20045;-86
2021/06/02 05:41:19;;;;;;;10.10;2.55;;;15.90;80.10;;;;;;5020233;28;20061;-84
2021/06/02 05:44:10;;;;;;;7.28;3.03;;;15.90;78.80;;;;;;5014490;28;20082;-84
2021/06/02 05:47:04;;;;;;;7.50;2.55;;;15.90;79.00;;;;;;5016922;28;20071;-85
2021/06/02 05:50:04;;;;;;;4.60;3.58;;;16.00;77.70;;;;;;5015394;28;20059;-86
2021/06/02 05:52:39;;;;;;;6.38;2.22;;;16.00;77.80;;;;;;5017346;28;20029;-86
2021/06/02 05:55:26;;;;;;;5.78;2.42;;;16.10;76.60;;;;;;4998988;28;20034;-84
2021/06/02 05:58:29;;;;;;;4.20;2.35;;;16.10;78.30;;;;;;5016112;28;20025;-86
2021/06/02 06:01:20;;;;;;;5.82;2.70;;;16.10;75.40;;;;;;5014489;28;20449;-87
2021/06/02 06:04:08;;;;;;;3.33;2.10;;;16.20;77.00;;;;;;5009820;28;20524;-86
2021/06/02 06:07:02;;;;;;;8.25;2.20;;;16.30;77.00;;;;;;5021686;28;20108;-85
2021/06/02 06:09:55;;;;;;;3.70;2.30;;;16.40;73.80;;;;;;5019048;28;20037;-84
2021/06/02 06:12:40;;;;;;;4.32;2.13;;;16.50;77.50;;;;;;5017682;28;20117;-83
2021/06/02 06:15:21;;;;;;;5.15;1.92;;;16.60;75.40;;;;;;5019944;28;20037;-86
2021/06/02 06:18:11;;;;;;;4.70;1.95;;;16.70;73.90;;;;;;5022359;28;20029;-84
2021/06/02 06:20:55;;;;;;;;;;;16.80;76.50;;;;;;5022143;28;20477;-85
2021/06/02 06:23:42;;;;;;;4.78;1.80;;;17.10;75.50;;;;;;5023939;28;19910;-86
2021/06/02 06:26:16;;;;;;;5.15;2.10;;;17.20;73.90;;;;;;5017128;28;20243;-84
2021/06/02 06:29:09;;;;;;;5.10;1.98;;;17.40;71.10;;;;;;5027929;28;20099;-86
2021/06/02 06:31:39;;;;;;;4.65;1.50;;;17.70;73.10;;;;;;5023614;28;20056;-86
2021/06/02 06:34:10;;;;;;;;;;;17.90;71.20;;;;;;5022287;28;20057;-84
2021/06/02 06:36:38;;;;;;;7.95;1.98;;;18.00;69.10;;;;;;5025908;28;19925;-84
2021/06/02 06:39:23;;;;;;;9.57;1.67;;;18.10;70.30;;;;;;5018026;28;20030;-85
2021/06/02 06:41:50;;;;;;;6.20;1.60;;;18.20;66.90;;;;;;5011228;28;20029;-86
2021/06/02 06:44:18;;;;;;;6.88;1.90;;;18.10;66.00;;;;;;5006157;28;20056;-86
2021/06/02 06:46:46;;;;;;;4.20;1.42;;;18.20;66.10;;;;;;5017393;28;20088;-85
2021/06/02 06:49:14;;;;;;;6.45;1.77;;;18.40;66.80;;;;;;5025385;28;20120;-86
2021/06/02 06:51:42;;;;;;;4.85;1.70;;;18.70;64.40;;;;;;5025773;28;20090;-85
2021/06/02 06:54:13;;;;;;;5.60;2.03;;;18.80;65.50;;;;;;5020238;28;20038;-85
2021/06/02 06:56:40;;;;;;;2.80;1.30;;;19.00;65.10;;;;;;5023754;28;20026;-86
2021/06/02 06:59:07;;;;;;;4.18;1.85;;;19.20;64.60;;;;;;5022005;28;20078;-84
2021/06/02 07:01:37;;;;;;;2.78;1.58;;;19.40;62.80;;;;;;5023745;28;20029;-86
2021/06/02 07:04:03;;;;;;;5.15;1.80;;;19.40;62.60;;;;;;5020885;28;20030;-86
2021/06/02 07:06:31;;;;;;;4.75;1.55;;;19.40;61.20;;;;;;5022452;28;20098;-84
2021/06/02 07:08:57;;;;;;;4.32;1.27;;;19.50;58.80;;;;;;5013293;28;20068;-86
2021/06/02 07:11:23;;;;;;;2.72;1.17;;;19.50;58.60;;;;;;5018342;28;20034;-84
2021/06/02 07:13:49;;;;;;;3.03;1.10;;;19.50;59.20;;;;;;5021847;28;20478;-85
2021/06/02 07:16:15;;;;;;;7.97;1.27;;;19.60;56.20;;;;;;5012250;28;20021;-86
2021/06/02 07:18:44;;;;;;;4.57;1.17;;;19.70;57.70;;;;;;5025445;28;20030;-86
2021/06/02 07:21:11;;;;;;;7.47;0.98;;;19.70;54.10;;;;;;5019602;28;20026;-86
2021/06/02 07:23:39;;;;;;;3.78;0.68;;;19.70;54.70;;;;;;5019668;28;20026;-85
2021/06/02 07:26:06;;;;;;;4.40;1.05;;;19.80;57.60;;;;;;5015928;28;20038;-85
2021/06/02 07:28:41;;;;;;;2.67;0.88;;;19.70;51.80;;;;;;5026254;28;20026;-86
2021/06/02 07:31:09;;;;;;;6.55;1.25;;;19.60;51.50;;;;;;5017849;28;20030;-85
2021/06/02 07:33:36;;;;;;;4.95;0.90;;;19.80;53.20;;;;;;5021592;28;20559;-85
2021/06/02 07:36:02;;;;;;;3.70;1.00;;;19.90;54.30;;;;;;5020880;28;20041;-85
2021/06/02 07:38:28;;;;;;;4.55;1.17;;;20.10;50.30;;;;;;5012442;28;20034;-85
2021/06/02 07:40:55;;;;;;;2.92;1.15;;;20.20;53.50;;;;;;5016288;28;20105;-86
2021/06/02 07:43:20;;;;;;;3.63;1.05;;;20.30;49.90;;;;;;5016540;28;20030;-85
2021/06/02 07:45:46;;;;;;;19.08;1.70;;;20.20;48.90;;;;;;5023452;28;20025;-86
2021/06/02 07:48:13;;;;;;;4.65;1.02;;;20.20;49.00;;;;;;5019956;28;20113;-86
2021/06/02 07:50:38;;;;;;;4.43;1.13;;;20.10;52.30;;;;;;5018444;28;20020;-86
2021/06/02 07:53:04;;;;;;;4.53;1.10;;;20.10;50.30;;;;;;5016456;28;20445;-85
2021/06/02 07:55:30;;;;;;;3.10;1.15;;;20.00;49.20;;;;;;5002232;28;20026;-84
2021/06/02 07:57:56;;;;;;;4.38;1.50;;;20.10;50.60;;;;;;5022194;28;20061;-86
2021/06/02 08:00:22;;;;;;;5.63;1.00;;;20.00;49.60;;;;;;5018406;28;20045;-85
2021/06/02 08:02:48;;;;;;;2.95;0.90;;;20.00;50.50;;;;;;5018637;28;20470;-86
2021/06/02 08:05:15;;;;;;;3.10;1.05;;;20.10;50.10;;;;;;5013625;28;20033;-84
2021/06/02 08:07:42;;;;;;;4.72;1.40;;;20.20;50.70;;;;;;5020594;28;20033;-86
2021/06/02 08:10:08;;;;;;;4.10;1.10;;;20.20;49.00;;;;;;5016968;28;20041;-88
2021/06/02 08:12:34;;;;;;;4.10;1.10;;;20.20;47.50;;;;;;5022655;28;20088;-86
2021/06/02 08:15:00;;;;;;;5.25;1.30;;;20.10;47.90;;;;;;5019485;28;20025;-87
2021/06/02 08:17:25;;;;;;;9.30;1.50;;;20.20;48.70;;;;;;5015983;28;20029;-85
2021/06/02 08:19:51;;;;;;;9.50;1.05;;;20.30;49.60;;;;;;5011677;28;20041;-85
2021/06/02 08:22:17;;;;;;;7.35;1.55;;;20.30;48.40;;;;;;5018092;28;20064;-85
2021/06/02 08:24:42;;;;;;;4.70;1.08;;;20.40;49.50;;;;;;5024824;28;20117;-85
2021/06/02 08:27:12;;;;;;;4.45;1.10;;;20.40;48.80;;;;;;5019169;28;20469;-85
2021/06/02 08:29:39;;;;;;;3.78;1.38;;;20.50;49.10;;;;;;5017392;28;20025;-86
2021/06/02 08:32:05;;;;;;;5.90;1.10;;;20.50;46.10;;;;;;5003863;28;20064;-86
2021/06/02 08:34:31;;;;;;;6.68;1.25;;;20.60;48.50;;;;;;5016405;28;20025;-86
2021/06/02 08:36:57;;;;;;;3.30;0.90;;;20.60;46.90;;;;;;5000531;28;20052;-85
2021/06/02 08:39:22;;;;;;;4.65;1.40;;;20.60;47.90;;;;;;5017621;28;20088;-84
2021/06/02 08:41:51;;;;;;;5.68;1.33;;;20.70;47.80;;;;;;5017216;28;20095;-86
2021/06/02 08:44:19;;;;;;;5.05;1.05;;;20.70;46.80;;;;;;5019432;28;20025;-85
2021/06/02 08:46:47;;;;;;;2.55;1.10;;;20.80;46.20;;;;;;5021299;28;20048;-85
2021/06/02 08:49:17;;;;;;;3.15;0.85;;;20.60;45.20;;;;;;5025174;28;20037;-85
2021/06/02 08:51:43;;;;;;;6.10;1.15;;;20.50;47.20;;;;;;5014453;28;20037;-85
2021/06/02 08:54:09;;;;;;;1.67;0.70;;;20.50;47.80;;;;;;5019723;28;20076;-85
2021/06/02 08:56:41;;;;;;;4.30;1.50;;;20.60;48.30;;;;;;5006297;28;20036;-84
2021/06/02 08:59:07;;;;;;;3.42;1.17;;;20.60;47.10;;;;;;5023973;28;20484;-85
2021/06/02 09:01:33;;;;;;;3.42;1.13;;;20.60;46.70;;;;;;5021957;28;20560;-84
2021/06/02 09:04:07;;;;;;;3.20;1.10;;;20.40;45.60;;;;;;5020166;28;20044;-85
2021/06/02 09:06:35;;;;;;;2.33;1.30;;;20.30;46.60;;;;;;5006713;28;20048;-85
2021/06/02 09:09:04;;;;;;;8.23;1.40;;;20.20;47.00;;;;;;5020317;28;20040;-85
2021/06/02 09:11:36;;;;;;;6.25;1.30;;;20.20;47.60;;;;;;5023484;28;20530;-86
2021/06/02 09:14:01;;;;;;;2.53;1.20;;;20.30;50.60;;;;;;5023924;28;20060;-85
2021/06/02 09:16:30;;;;;;;7.50;1.13;;;20.30;47.80;;;;;;5024281;28;20108;-86
2021/06/02 09:19:09;;;;;;;4.25;1.17;;;20.40;49.30;;;;;;5014396;28;20540;-84
2021/06/02 09:21:38;;;;;;;5.45;0.95;;;20.30;46.40;;;;;;5013492;28;20040;-85
2021/06/02 09:24:05;;;;;;;2.13;0.90;;;20.40;48.70;;;;;;5019735;28;20038;-86
2021/06/02 09:26:31;;;;;;;8.57;1.65;;;20.60;46.70;;;;;;5015646;28;20580;-85
2021/06/02 09:29:11;;;;;;;2.55;1.10;;;20.80;48.50;;;;;;5021207;28;20101;-85
2021/06/02 09:31:44;;;;;;;4.25;1.10;;;20.80;48.00;;;;;;5018541;28;20076;-85
2021/06/02 09:34:16;;;;;;;1.95;1.10;;;21.00;47.00;;;;;;5019091;28;20489;-85
2021/06/02 09:36:44;;;;;;;2.40;1.00;;;21.20;48.70;;;;;;5015674;28;20054;-86
2021/06/02 09:39:12;;;;;;;2.15;1.10;;;21.40;46.90;;;;;;5024732;28;20022;-86
2021/06/02 09:41:47;;;;;;;2.40;1.00;;;21.30;46.70;;;;;;5026376;28;20033;-84
2021/06/02 09:44:20;;;;;;;3.03;1.30;;;21.30;46.00;;;;;;5020532;28;20038;-83
2021/06/02 09:47:05;;;;;;;7.05;2.03;;;21.50;47.30;;;;;;5004797;28;20037;-86
2021/06/02 09:49:51;;;;;;;2.03;1.00;;;21.50;45.10;;;;;;5005157;28;20038;-85
2021/06/02 09:52:18;;;;;;;2.65;1.08;;;21.40;45.10;;;;;;5018610;28;20017;-84
2021/06/02 09:54:44;;;;;;;1.60;0.88;;;21.20;45.10;;;;;;5022106;28;20465;-85
2021/06/02 09:57:19;;;;;;;3.33;0.65;;;21.00;44.30;;;;;;5023624;28;20108;-85
2021/06/02 09:59:59;;;;;;;3.72;1.30;;;20.70;43.90;;;;;;5021989;28;20057;-84
2021/06/02 10:02:25;;;;;;;2.80;1.10;;;20.60;45.20;;;;;;5023878;28;20087;-86
2021/06/02 10:05:11;;;;;;;2.83;1.10;;;20.70;46.90;;;;;;5010449;28;20505;-85
2021/06/02 10:07:43;;;;;;;2.33;1.15;;;21.00;48.00;;;;;;5015761;28;20038;-85
2021/06/02 10:10:20;;;;;;;3.42;1.20;;;21.30;48.60;;;;;;5010758;28;20041;-85
2021/06/02 10:13:07;;;;;;;5.00;1.35;;;21.40;46.80;;;;;;5017900;28;20033;-84
2021/06/02 10:15:42;;;;;;;4.85;1.00;;;21.40;46.70;;;;;;5019301;28;20121;-85
2021/06/02 10:18:26;;;;;;;3.28;1.48;;;21.60;48.40;;;;;;5019504;28;20031;-85
2021/06/02 10:21:13;;;;;;;3.65;1.25;;;21.70;48.50;;;;;;5023357;28;20026;-85
2021/06/02 10:23:43;;;;;;;1.95;0.90;;;21.90;48.50;;;;;;5019335;28;20032;-85
2021/06/02 10:26:14;;;;;;;3.95;1.30;;;21.90;44.90;;;;;;5017350;28;20061;-85
2021/06/02 10:28:41;;;;;;;3.30;1.27;;;21.90;48.00;;;;;;5019185;28;20100;-86
2021/06/02 10:31:08;;;;;;;5.35;1.77;;;22.00;46.90;;;;;;5027050;28;20163;-85
2021/06/02 10:33:34;;;;;;;2.85;1.20;;;22.10;47.70;;;;;;5028184;28;20116;-85
2021/06/02 10:36:04;;;;;;;5.22;1.10;;;22.10;48.00;;;;;;5027720;28;20048;-85
2021/06/02 10:38:34;;;;;;;6.40;1.73;;;22.30;44.50;;;;;;5018850;28;20029;-86
2021/06/02 10:41:01;;;;;;;4.15;1.30;;;22.20;46.00;;;;;;5024859;28;20032;-85
2021/06/02 10:43:40;;;;;;;4.88;0.93;;;22.20;43.90;;;;;;5017844;28;20026;-85
2021/06/02 10:46:12;;;;;;;6.25;1.40;;;22.10;44.90;;;;;;5023838;28;20033;-84
2021/06/02 10:49:00;;;;;;;6.53;1.23;;;22.00;47.00;;;;;;5021928;28;20056;-85
2021/06/02 10:51:28;;;;;;;1.70;0.82;;;22.20;44.20;;;;;;5019060;28;20022;-85
2021/06/02 10:54:13;;;;;;;4.22;1.30;;;22.20;45.50;;;;;;5018497;28;20029;-85
2021/06/02 10:56:41;;;;;;;2.53;1.10;;;21.90;43.10;;;;;;5026622;28;20048;-87
2021/06/02 10:59:29;;;;;;;2.83;1.05;;;21.80;43.20;;;;;;5013839;28;20524;-85
2021/06/02 11:02:09;;;;;;;2.47;1.20;;;21.50;45.20;;;;;;5023750;28;20029;-85
2021/06/02 11:04:37;;;;;;;4.65;1.17;;;21.40;45.30;;;;;;5022688;28;20112;-85
2021/06/02 11:07:17;;;;;;;3.28;0.90;;;21.20;44.30;;;;;;5022624;28;20029;-84
2021/06/02 11:10:04;;;;;;;2.57;0.87;;;21.10;45.60;;;;;;5023033;28;20069;-84
2021/06/02 11:13:06;;;;;;;4.88;1.10;;;20.90;44.30;;;;;;5018662;28;20168;-85
2021/06/02 11:15:33;;;;;;;4.18;0.73;;;20.70;46.80;;;;;;5009179;28;20049;-86
2021/06/02 11:18:11;;;;;;;5.10;0.77;;;20.70;44.50;;;;;;5014922;28;20384;-85
2021/06/02 11:20:41;;;;;;;2.95;1.25;;;20.70;45.20;;;;;;5019237;28;20086;-85
2021/06/02 11:23:12;;;;;;;6.05;1.10;;;20.70;45.60;;;;;;5021387;28;20033;-85
2021/06/02 11:25:39;;;;;;;3.47;1.42;;;20.60;46.00;;;;;;5019995;28;20029;-85
2021/06/02 11:28:06;;;;;;;4.40;1.13;;;20.70;45.20;;;;;;5024224;28;20041;-85
2021/06/02 11:30:33;;;;;;;3.75;1.30;;;20.80;46.20;;;;;;5015076;28;20021;-85
2021/06/02 11:33:07;;;;;;;9.15;1.50;;;21.00;45.50;;;;;;5024544;28;20045;-84
2021/06/02 11:35:54;;;;;;;2.40;1.30;;;21.30;48.00;;;;;;5024478;28;20048;-85
2021/06/02 11:38:22;;;;;;;7.00;1.38;;;21.50;43.60;;;;;;5019787;28;20083;-86
2021/06/02 11:40:49;;;;;;;97.15;9.10;;;21.70;43.50;;;;;;5019317;28;20080;-86
2021/06/02 11:43:14;;;;;;;3.75;1.13;;;21.90;43.40;;;;;;5022639;28;20034;-86
2021/06/02 11:45:44;;;;;;;2.63;0.82;;;21.80;41.80;;;;;;5013726;28;20037;-84
2021/06/02 11:48:12;;;;;;;3.72;0.85;;;21.70;42.30;;;;;;5022621;28;20038;-84
2021/06/02 11:50:38;;;;;;;7.95;1.75;;;21.90;44.00;;;;;;5021738;28;20030;-84
2021/06/02 11:53:04;;;;;;;3.50;0.90;;;22.10;43.60;;;;;;5025773;28;20044;-84
2021/06/02 11:55:33;;;;;;;2.58;0.98;;;22.30;43.90;;;;;;5014005;28;20083;-86
2021/06/02 11:57:59;;;;;;;2.47;0.88;;;22.00;42.90;;;;;;5020107;28;20028;-86
2021/06/02 12:00:35;;;;;;;1.88;0.93;;;21.80;42.80;;;;;;5022486;28;20029;-87
2021/06/02 12:03:11;;;;;;;4.35;1.35;;;21.50;42.80;;;;;;5019712;28;20629;-86
2021/06/02 12:05:42;;;;;;;3.70;1.20;;;21.40;44.40;;;;;;5020258;28;20144;-85
2021/06/02 12:08:13;;;;;;;2.38;0.75;;;21.20;43.90;;;;;;5021195;28;20036;-85
2021/06/02 12:10:48;;;;;;;2.78;0.70;;;21.20;44.00;;;;;;5019385;28;20563;-85
2021/06/02 12:13:30;;;;;;;2.42;0.90;;;21.30;43.70;;;;;;5013929;28;20026;-85
2021/06/02 12:16:04;;;;;;;7.82;1.38;;;21.50;46.30;;;;;;5022440;28;20025;-85
2021/06/02 12:18:34;;;;;;;6.55;1.50;;;21.40;43.50;;;;;;5020697;28;20033;-84
2021/06/02 12:21:22;;;;;;;3.58;0.95;;;21.10;44.00;;;;;;5020164;28;20109;-83
2021/06/02 12:23:59;;;;;;;4.18;0.98;;;21.10;44.80;;;;;;5018841;28;20017;-84
2021/06/02 12:26:30;;;;;;;7.43;2.22;;;21.10;45.00;;;;;;5021347;28;20061;-84
2021/06/02 12:28:57;;;;;;;1.90;0.85;;;21.30;45.70;;;;;;5016365;28;20024;-85
2021/06/02 12:31:39;;;;;;;6.38;1.35;;;21.40;44.40;;;;;;5022264;28;20366;-84
2021/06/02 12:34:27;;;;;;;4.20;1.45;;;21.60;43.90;;;;;;5005913;28;20033;-85
2021/06/02 12:36:54;;;;;;;5.97;1.00;;;21.70;45.00;;;;;;5013812;28;20115;-85
2021/06/02 12:39:23;;;;;;;2.13;0.90;;;21.70;43.20;;;;;;5017002;28;20040;-85
2021/06/02 12:41:51;;;;;;;3.67;1.02;;;21.60;43.10;;;;;;5016569;28;20100;-84
2021/06/02 12:44:25;;;;;;;2.60;0.73;;;21.70;45.10;;;;;;5004959;28;20048;-85
2021/06/02 12:47:00;;;;;;;5.03;0.70;;;21.70;44.30;;;;;;5018431;28;20021;-83
2021/06/02 12:49:26;;;;;;;1.95;0.90;;;21.60;43.40;;;;;;5013171;28;20037;-87
2021/06/02 12:51:56;;;;;;;4.38;1.05;;;21.80;44.90;;;;;;5024874;28;20144;-83
2021/06/02 12:54:28;;;;;;;3.20;0.82;;;21.90;44.80;;;;;;5021134;28;20475;-85
2021/06/02 12:56:54;;;;;;;2.13;1.30;;;22.00;43.60;;;;;;5027370;28;20029;-85
2021/06/02 12:59:20;;;;;;;2.42;0.95;;;22.10;46.70;;;;;;5025299;28;20017;-86
2021/06/02 13:01:47;;;;;;;3.40;0.52;;;22.10;43.00;;;;;;5007407;28;20040;-84
2021/06/02 13:04:15;;;;;;;5.32;1.15;;;21.90;43.00;;;;;;5021916;28;20032;-85
2021/06/02 13:06:51;;;;;;;6.72;1.23;;;21.70;44.30;;;;;;5026394;28;20033;-85
2021/06/02 13:09:21;;;;;;;3.47;0.93;;;21.20;43.60;;;;;;5022942;28;20056;-84
2021/06/02 13:11:47;;;;;;;2.50;1.08;;;21.10;44.50;;;;;;5007662;28;20108;-84
2021/06/02 13:14:12;;;;;;;3.83;1.17;;;21.00;44.50;;;;;;5005000;28;20137;-83
2021/06/02 13:16:52;;;;;;;3.53;1.23;;;20.90;44.60;;;;;;5032500;28;20080;-85
2021/06/02 13:19:18;;;;;;;5.93;1.25;;;20.80;44.70;;;;;;5029103;28;20034;-84
2021/06/02 13:21:50;;;;;;;4.43;1.20;;;20.80;45.10;;;;;;5026875;28;20389;-84
2021/06/02 13:24:19;;;;;;;6.85;1.35;;;20.80;45.70;;;;;;5026126;28;20029;-85
2021/06/02 13:26:53;;;;;;;8.20;1.27;;;21.00;45.20;;;;;;5020309;28;20440;-85
2021/06/02 13:29:19;;;;;;;3.50;0.98;;;21.20;47.30;;;;;;5022387;28;20052;-86
2021/06/02 13:31:48;;;;;;;5.82;1.30;;;21.40;44.20;;;;;;5022516;28;20044;-85